Time;durP1;ratioP1;P1;durP2;ratioP2;P2;SDS_P1;SDS_P2;PMS_P1;PMS_P2;Temp;Humidity;BMP_temperature;BMP_pressure;BME280_temperature;BME280_humidity;BME280_pressure;Samples;Min_cycle;Max_cycle;Signal;HPM_P1;HPM_P2
2023/05/14 00:01:11;;;;;;;14.95;9.95;;;14.20;99.90;;;;;;4994390;28;20049;-65
2023/05/14 00:03:39;;;;;;;17.27;10.35;;;14.30;99.90;;;;;;5006569;28;20053;-65
2023/05/14 00:06:05;;;;;;;14.15;9.65;;;14.20;99.90;;;;;;4989584;28;20069;-65
2023/05/14 00:08:31;;;;;;;15.63;10.05;;;14.20;99.90;;;;;;5012201;28;20045;-65
2023/05/14 00:10:57;;;;;;;15.57;9.88;;;14.20;99.90;;;;;;5012280;28;20034;-65
2023/05/14 00:13:24;;;;;;;16.25;10.45;;;14.10;99.90;;;;;;5011888;28;20034;-65
2023/05/14 00:15:49;;;;;;;16.75;10.05;;;14.10;99.90;;;;;;5005543;28;20092;-65
2023/05/14 00:18:15;;;;;;;15.18;9.88;;;14.20;99.90;;;;;;5010890;28;20042;-65
2023/05/14 00:20:40;;;;;;;17.85;10.13;;;14.10;99.90;;;;;;5011824;28;20451;-64
2023/05/14 00:23:06;;;;;;;17.20;9.98;;;14.10;99.90;;;;;;5011640;28;20033;-65
2023/05/14 00:25:32;;;;;;;15.95;10.23;;;14.00;99.90;;;;;;5011331;28;20125;-66
2023/05/14 00:27:57;;;;;;;16.35;10.82;;;14.00;99.90;;;;;;5007554;28;20038;-65
2023/05/14 00:30:23;;;;;;;17.80;10.13;;;13.90;99.90;;;;;;4991376;28;20483;-64
2023/05/14 00:32:48;;;;;;;17.25;10.60;;;13.90;99.90;;;;;;5009518;28;20297;-65
2023/05/14 00:35:14;;;;;;;15.38;11.25;;;14.00;99.90;;;;;;4995542;28;20491;-65
2023/05/14 00:37:39;;;;;;;18.38;10.57;;;13.90;99.90;;;;;;5011469;28;20404;-65
2023/05/14 00:40:07;;;;;;;14.68;10.68;;;13.90;99.90;;;;;;4993869;28;20045;-62
2023/05/14 00:42:33;;;;;;;16.25;11.20;;;13.90;99.90;;;;;;4994072;28;20054;-65
2023/05/14 00:44:58;;;;;;;17.60;10.82;;;13.90;99.90;;;;;;4998182;28;20887;-64
2023/05/14 00:47:24;;;;;;;16.35;10.80;;;13.80;99.90;;;;;;4993142;28;20080;-65
2023/05/14 00:49:50;;;;;;;14.30;10.30;;;13.90;99.90;;;;;;4992489;28;20046;-64
2023/05/14 00:52:16;;;;;;;17.30;10.48;;;13.90;99.90;;;;;;5016705;28;20117;-65
2023/05/14 00:54:43;;;;;;;16.63;10.40;;;13.80;99.90;;;;;;5008176;28;20523;-65
2023/05/14 00:57:09;;;;;;;18.33;10.98;;;13.80;99.90;;;;;;5010882;28;20144;-66
2023/05/14 00:59:35;;;;;;;19.30;11.10;;;13.70;99.90;;;;;;4992817;28;20049;-62
2023/05/14 01:02:01;;;;;;;16.58;10.90;;;13.70;99.90;;;;;;5009991;28;20428;-65
2023/05/14 01:04:26;;;;;;;18.42;11.00;;;13.70;99.90;;;;;;5007327;28;20499;-65
2023/05/14 01:07:08;;;;;;;15.52;11.00;;;13.70;99.90;;;;;;5010595;28;20065;-62
2023/05/14 01:09:54;;;;;;;18.07;11.10;;;13.70;99.90;;;;;;4993924;28;20049;-66
2023/05/14 01:12:44;;;;;;;20.73;10.40;;;13.70;99.90;;;;;;5013073;28;20050;-65
2023/05/14 01:15:22;;;;;;;15.35;11.23;;;13.70;99.90;;;;;;4987287;28;20400;-66
2023/05/14 01:17:54;;;;;;;18.85;10.88;;;13.60;99.90;;;;;;5009860;28;20395;-65
2023/05/14 01:20:20;;;;;;;15.00;10.63;;;13.60;99.90;;;;;;5010218;28;20109;-65
2023/05/14 01:22:46;;;;;;;17.75;11.48;;;13.60;99.90;;;;;;4995298;28;20046;-65
2023/05/14 01:25:11;;;;;;;14.45;11.13;;;13.50;99.90;;;;;;5010748;28;20037;-65
2023/05/14 01:28:02;;;;;;;17.67;11.00;;;13.50;99.90;;;;;;5010263;28;20034;-64
2023/05/14 01:30:45;;;;;;;15.13;10.77;;;13.50;99.90;;;;;;4991710;28;20385;-65
2023/05/14 01:33:13;;;;;;;14.98;11.10;;;13.50;99.90;;;;;;4989788;28;20157;-64
2023/05/14 01:35:40;;;;;;;14.85;10.45;;;13.40;99.90;;;;;;4988256;28;20042;-65
2023/05/14 01:38:11;;;;;;;17.67;10.32;;;13.40;99.90;;;;;;4992669;28;20041;-64
2023/05/14 01:40:37;;;;;;;16.42;10.88;;;13.40;99.90;;;;;;5010633;28;20554;-66
2023/05/14 01:43:04;;;;;;;18.63;11.07;;;13.30;99.90;;;;;;4996168;28;20096;-63
2023/05/14 01:45:33;;;;;;;16.23;10.55;;;13.30;99.90;;;;;;5011622;28;20077;-65
2023/05/14 01:47:58;;;;;;;17.23;10.73;;;13.20;99.90;;;;;;5005458;28;20081;-65
2023/05/14 01:50:27;;;;;;;16.15;10.80;;;13.20;99.90;;;;;;5010672;28;20073;-65
2023/05/14 01:52:55;;;;;;;15.82;10.23;;;13.10;99.90;;;;;;5008278;28;20572;-66
2023/05/14 01:55:23;;;;;;;18.60;10.50;;;13.00;99.90;;;;;;5004867;28;20045;-65
2023/05/14 01:57:49;;;;;;;15.35;10.30;;;12.90;99.90;;;;;;4992253;28;20057;-65
2023/05/14 02:00:15;;;;;;;16.35;10.30;;;12.90;99.90;;;;;;4987727;28;20468;-65
2023/05/14 02:02:41;;;;;;;14.85;9.90;;;12.80;99.90;;;;;;5008718;28;20069;-64
2023/05/14 02:05:07;;;;;;;15.32;9.88;;;12.70;99.90;;;;;;5009965;28;20037;-64
2023/05/14 02:07:33;;;;;;;17.13;10.50;;;12.70;99.90;;;;;;5010308;28;20096;-64
2023/05/14 02:09:58;;;;;;;16.88;10.40;;;12.70;99.90;;;;;;5010011;28;20496;-64
2023/05/14 02:12:25;;;;;;;13.60;10.32;;;12.60;99.90;;;;;;5010155;28;20121;-64
2023/05/14 02:14:50;;;;;;;14.35;9.43;;;12.60;99.90;;;;;;4992287;28;20528;-64
2023/05/14 02:17:16;;;;;;;12.95;10.32;;;12.50;99.90;;;;;;5008564;28;20144;-64
2023/05/14 02:19:43;;;;;;;18.45;9.95;;;12.50;99.90;;;;;;5010136;28;20114;-64
2023/05/14 02:22:08;;;;;;;15.07;10.25;;;12.50;99.90;;;;;;4992329;28;20049;-64
2023/05/14 02:24:34;;;;;;;14.15;10.40;;;12.40;99.90;;;;;;4991726;28;20233;-64
2023/05/14 02:26:59;;;;;;;15.77;10.65;;;12.40;99.90;;;;;;5009802;28;20124;-64
2023/05/14 02:29:26;;;;;;;16.38;10.73;;;12.30;99.90;;;;;;5015928;28;20042;-64
2023/05/14 02:31:52;;;;;;;15.52;10.73;;;12.30;99.90;;;;;;4995134;28;20514;-64
2023/05/14 02:34:17;;;;;;;14.75;10.93;;;12.20;99.90;;;;;;4984589;28;20045;-64
2023/05/14 02:36:43;;;;;;;18.00;11.05;;;12.20;99.90;;;;;;5008651;28;20030;-64
2023/05/14 02:39:09;;;;;;;17.35;10.98;;;12.20;99.90;;;;;;5009953;28;20041;-64
2023/05/14 02:41:34;;;;;;;19.17;11.23;;;12.10;99.90;;;;;;4996920;28;20223;-64
2023/05/14 02:44:00;;;;;;;14.05;11.10;;;12.10;99.90;;;;;;4992295;28;20038;-64
2023/05/14 02:46:25;;;;;;;13.05;10.20;;;12.10;99.90;;;;;;5008387;28;20488;-64
2023/05/14 02:48:51;;;;;;;16.42;10.70;;;12.00;99.90;;;;;;4998105;28;20122;-64
2023/05/14 02:51:19;;;;;;;14.50;10.82;;;12.00;99.90;;;;;;5009704;28;20081;-64
2023/05/14 02:53:45;;;;;;;14.45;10.73;;;12.00;99.90;;;;;;4991902;28;20341;-64
2023/05/14 02:56:10;;;;;;;13.77;9.93;;;11.90;99.90;;;;;;5008689;28;20571;-64
2023/05/14 02:58:36;;;;;;;15.32;10.82;;;11.90;99.90;;;;;;4990175;28;20080;-64
2023/05/14 03:01:02;;;;;;;14.18;10.50;;;11.80;99.90;;;;;;5012506;28;20068;-64
2023/05/14 03:03:29;;;;;;;18.27;12.38;;;11.80;99.90;;;;;;4991300;28;20129;-64
2023/05/14 03:05:55;;;;;;;18.55;12.90;;;11.80;99.90;;;;;;5009573;28;20042;-64
2023/05/14 03:08:20;;;;;;;15.27;11.75;;;11.80;99.90;;;;;;5009512;28;20053;-64
2023/05/14 03:10:46;;;;;;;17.15;11.77;;;11.70;99.90;;;;;;5011706;28;20114;-64
2023/05/14 03:13:12;;;;;;;18.83;12.13;;;11.80;99.90;;;;;;5009298;28;20403;-64
2023/05/14 03:15:37;;;;;;;18.90;12.70;;;11.70;99.90;;;;;;4994350;28;20506;-64
2023/05/14 03:18:03;;;;;;;21.02;12.65;;;11.70;99.90;;;;;;5012640;28;20030;-64
2023/05/14 03:20:29;;;;;;;19.88;12.35;;;11.70;99.90;;;;;;4995369;28;20108;-64
2023/05/14 03:22:55;;;;;;;22.95;13.18;;;11.70;99.90;;;;;;5002013;28;20073;-64
2023/05/14 03:25:20;;;;;;;17.63;13.23;;;11.80;99.90;;;;;;5002157;28;20049;-64
2023/05/14 03:27:46;;;;;;;19.40;12.93;;;11.70;99.90;;;;;;4993864;28;20430;-64
2023/05/14 03:30:12;;;;;;;18.50;12.73;;;11.80;99.90;;;;;;5008340;28;20117;-64
2023/05/14 03:32:38;;;;;;;17.63;12.85;;;11.80;99.90;;;;;;5035327;22;20065;-61
2023/05/14 03:35:04;;;;;;;20.95;13.25;;;11.80;99.90;;;;;;5034585;28;20077;-61
2023/05/14 03:37:29;;;;;;;20.02;13.13;;;11.80;99.90;;;;;;5050864;28;20029;-62
2023/05/14 03:39:55;;;;;;;17.58;12.10;;;11.80;99.90;;;;;;5052424;28;20071;-63
2023/05/14 03:42:20;;;;;;;16.75;12.43;;;11.80;99.90;;;;;;5051547;28;20056;-61
2023/05/14 03:44:46;;;;;;;16.15;11.98;;;11.70;99.90;;;;;;5030661;28;20410;-61
2023/05/14 03:47:11;;;;;;;17.30;12.13;;;11.70;99.90;;;;;;5049013;28;20040;-61
2023/05/14 03:49:37;;;;;;;19.30;12.20;;;11.70;99.90;;;;;;5051728;28;20059;-64
2023/05/14 03:52:03;;;;;;;16.58;11.93;;;11.70;99.90;;;;;;5047832;28;20039;-61
2023/05/14 03:54:28;;;;;;;21.17;12.93;;;11.70;99.90;;;;;;5034430;28;20045;-61
2023/05/14 03:56:54;;;;;;;18.25;12.27;;;11.70;99.90;;;;;;5050796;28;20123;-61
2023/05/14 03:59:19;;;;;;;18.48;12.45;;;11.70;99.90;;;;;;5051153;28;20467;-63
2023/05/14 04:01:45;;;;;;;17.95;12.35;;;11.70;99.90;;;;;;5051958;28;20523;-62
2023/05/14 04:04:11;;;;;;;17.20;11.55;;;11.70;99.90;;;;;;5053820;28;20186;-61
2023/05/14 04:06:36;;;;;;;16.85;11.60;;;11.70;99.90;;;;;;5051661;28;20494;-61
2023/05/14 04:09:02;;;;;;;17.63;11.48;;;11.60;99.90;;;;;;5051682;28;20120;-62
2023/05/14 04:11:28;;;;;;;16.90;12.02;;;11.60;99.90;;;;;;5031594;28;20394;-63
2023/05/14 04:13:54;;;;;;;17.88;11.07;;;11.50;99.90;;;;;;5048778;28;20025;-66
2023/05/14 04:16:19;;;;;;;17.33;11.45;;;11.50;99.90;;;;;;5051637;28;20044;-66
2023/05/14 04:18:45;;;;;;;18.58;11.38;;;11.50;99.90;;;;;;5052134;28;20475;-62
2023/05/14 04:21:11;;;;;;;16.23;11.95;;;11.50;99.90;;;;;;5032832;28;20082;-62
2023/05/14 04:23:37;;;;;;;14.50;11.38;;;11.50;99.90;;;;;;5049173;28;20047;-62
2023/05/14 04:26:03;;;;;;;17.23;11.85;;;11.60;99.90;;;;;;5050522;28;20040;-64
2023/05/14 04:28:29;;;;;;;17.95;11.55;;;11.60;99.90;;;;;;5048202;28;20432;-62
2023/05/14 04:30:54;;;;;;;17.73;11.57;;;11.60;99.90;;;;;;5051867;28;20082;-62
2023/05/14 04:33:20;;;;;;;16.00;11.48;;;11.60;99.90;;;;;;5051377;28;20494;-65
2023/05/14 04:35:46;;;;;;;16.50;11.23;;;11.60;99.90;;;;;;5050399;28;20120;-62
2023/05/14 04:38:13;;;;;;;14.60;10.30;;;11.60;99.90;;;;;;5033466;28;20041;-62
2023/05/14 04:40:38;;;;;;;14.85;10.60;;;11.60;99.90;;;;;;5052240;28;20040;-65
2023/05/14 04:43:04;;;;;;;14.45;10.02;;;11.60;99.90;;;;;;5046613;28;20187;-62
2023/05/14 04:45:31;;;;;;;15.32;10.18;;;11.60;99.90;;;;;;5050429;28;20052;-61
2023/05/14 04:47:56;;;;;;;13.98;10.70;;;11.60;99.90;;;;;;5053121;28;20681;-61
2023/05/14 04:50:22;;;;;;;16.38;11.10;;;11.60;99.90;;;;;;5048551;28;20124;-62
2023/05/14 04:52:48;;;;;;;16.70;11.23;;;11.60;99.90;;;;;;5049583;28;20033;-62
2023/05/14 04:55:13;;;;;;;17.40;10.90;;;11.60;99.90;;;;;;5050256;28;20095;-63
2023/05/14 04:57:39;;;;;;;14.88;10.88;;;11.60;99.90;;;;;;5016961;28;20037;-63
2023/05/14 05:00:06;;;;;;;14.07;10.95;;;11.70;99.90;;;;;;5052752;28;20752;-64
2023/05/14 05:02:33;;;;;;;14.70;10.95;;;11.70;99.90;;;;;;5034635;28;20067;-63
2023/05/14 05:04:59;;;;;;;16.58;10.70;;;11.70;99.90;;;;;;5034604;28;20041;-64
2023/05/14 05:07:24;;;;;;;14.52;10.85;;;11.80;99.90;;;;;;5048710;28;20548;-64
2023/05/14 05:09:50;;;;;;;16.30;10.48;;;11.80;99.90;;;;;;5052425;28;20037;-64
2023/05/14 05:12:15;;;;;;;17.80;10.80;;;11.90;99.90;;;;;;5033834;28;20068;-61
2023/05/14 05:14:41;;;;;;;16.42;10.48;;;11.90;99.90;;;;;;5053212;28;20124;-63
2023/05/14 05:17:07;;;;;;;15.02;10.30;;;12.00;99.90;;;;;;5034946;28;20039;-63
2023/05/14 05:19:32;;;;;;;18.63;10.60;;;12.00;99.90;;;;;;5033178;28;20044;-60
2023/05/14 05:21:58;;;;;;;17.00;9.90;;;12.10;99.90;;;;;;5051070;28;20540;-62
2023/05/14 05:24:24;;;;;;;15.05;10.82;;;12.10;99.90;;;;;;5035163;28;20128;-63
2023/05/14 05:26:50;;;;;;;13.60;10.20;;;12.10;99.90;;;;;;5050764;28;20037;-63
2023/05/14 05:29:16;;;;;;;18.50;10.90;;;12.10;99.90;;;;;;5053432;28;20041;-61
2023/05/14 05:31:42;;;;;;;13.70;10.30;;;12.20;99.90;;;;;;5050714;28;20040;-64
2023/05/14 05:34:08;;;;;;;16.10;10.63;;;12.10;99.90;;;;;;5047812;28;20041;-64
2023/05/14 05:36:33;;;;;;;15.35;10.15;;;12.20;99.90;;;;;;5049858;28;20391;-64
2023/05/14 05:38:59;;;;;;;16.20;10.35;;;12.30;99.90;;;;;;5044565;28;20033;-64
2023/05/14 05:41:25;;;;;;;12.93;9.30;;;12.30;99.90;;;;;;5029928;28;20402;-62
2023/05/14 05:43:51;;;;;;;14.30;9.65;;;12.50;99.90;;;;;;5049104;28;20049;-64
2023/05/14 05:46:17;;;;;;;18.08;10.18;;;12.60;99.90;;;;;;5050311;28;20403;-62
2023/05/14 05:48:43;;;;;;;19.33;10.55;;;12.70;99.90;;;;;;5034620;28;20124;-64
2023/05/14 05:51:08;;;;;;;18.10;10.52;;;12.80;99.90;;;;;;5033716;28;20124;-64
2023/05/14 05:53:34;;;;;;;14.30;10.38;;;12.80;99.90;;;;;;5052291;28;20110;-64
2023/05/14 05:55:59;;;;;;;13.85;10.80;;;12.90;99.90;;;;;;5050935;28;20435;-64
2023/05/14 05:58:25;;;;;;;19.77;10.60;;;13.00;99.90;;;;;;5029911;28;20518;-63
2023/05/14 06:00:52;;;;;;;17.67;10.02;;;13.00;99.90;;;;;;5046922;28;20033;-63
2023/05/14 06:03:17;;;;;;;15.73;9.70;;;13.00;99.90;;;;;;5046812;28;20418;-64
2023/05/14 06:05:43;;;;;;;17.25;11.00;;;13.10;99.90;;;;;;5051411;28;20126;-62
2023/05/14 06:08:09;;;;;;;20.70;11.13;;;13.10;99.90;;;;;;5035077;28;20142;-63
2023/05/14 06:10:36;;;;;;;16.48;11.18;;;13.10;99.90;;;;;;5053669;28;20506;-64
2023/05/14 06:13:02;;;;;;;18.67;11.25;;;13.20;99.90;;;;;;5046655;28;20043;-64
2023/05/14 06:15:27;;;;;;;16.92;11.52;;;13.20;99.90;;;;;;5053447;28;20033;-61
2023/05/14 06:17:53;;;;;;;15.27;11.57;;;13.20;99.90;;;;;;5052067;28;20112;-65
2023/05/14 06:20:19;;;;;;;19.52;12.25;;;13.30;99.90;;;;;;5035007;28;20083;-65
2023/05/14 06:22:44;;;;;;;17.55;11.05;;;13.30;99.90;;;;;;5052617;28;20037;-64
2023/05/14 06:25:10;;;;;;;16.80;12.25;;;13.30;99.90;;;;;;5038451;28;20055;-63
2023/05/14 06:27:36;;;;;;;16.38;11.68;;;13.40;99.90;;;;;;5051651;28;20033;-61
2023/05/14 06:30:01;;;;;;;19.52;11.90;;;13.50;99.90;;;;;;5045584;28;20498;-64
2023/05/14 06:32:27;;;;;;;23.95;12.82;;;13.60;99.90;;;;;;5049195;28;20033;-65
2023/05/14 06:34:52;;;;;;;18.10;11.35;;;13.70;99.90;;;;;;5048410;28;20044;-65
2023/05/14 06:37:18;;;;;;;24.17;12.45;;;13.80;99.90;;;;;;5048377;28;20479;-63
2023/05/14 06:39:48;;;;;;;21.00;12.88;;;13.90;99.90;;;;;;5031706;28;20029;-65
2023/05/14 06:42:15;;;;;;;17.88;12.60;;;14.00;99.90;;;;;;5033393;28;20515;-63
2023/05/14 06:44:41;;;;;;;19.67;12.15;;;14.20;99.90;;;;;;5045048;28;20398;-63
2023/05/14 06:47:07;;;;;;;19.08;13.15;;;14.20;99.90;;;;;;5054218;28;20040;-64
2023/05/14 06:49:33;;;;;;;19.52;13.32;;;14.30;99.90;;;;;;5056166;28;20045;-62
2023/05/14 06:51:59;;;;;;;20.17;13.27;;;14.40;99.90;;;;;;5059742;28;20037;-64
2023/05/14 06:54:25;;;;;;;20.25;12.15;;;14.50;99.90;;;;;;5040837;28;20055;-64
2023/05/14 06:56:51;;;;;;;17.48;11.80;;;14.60;99.90;;;;;;5042053;28;20434;-64
2023/05/14 06:59:16;;;;;;;18.42;12.25;;;14.70;99.90;;;;;;5041463;28;20056;-64
2023/05/14 07:01:42;;;;;;;20.27;12.18;;;14.80;99.90;;;;;;5060139;28;20060;-62
2023/05/14 07:04:08;;;;;;;21.48;12.27;;;14.80;99.90;;;;;;5059144;28;20032;-64
2023/05/14 07:06:34;;;;;;;19.70;11.77;;;15.00;99.90;;;;;;5052699;28;20040;-64
2023/05/14 07:09:00;;;;;;;18.48;11.85;;;15.00;99.90;;;;;;5055962;28;20029;-64
2023/05/14 07:11:26;;;;;;;21.80;12.38;;;15.00;99.90;;;;;;5032886;28;20439;-64
2023/05/14 07:13:52;;;;;;;19.15;12.07;;;15.10;99.90;;;;;;5058047;28;20082;-64
2023/05/14 07:16:18;;;;;;;19.92;12.23;;;15.10;99.90;;;;;;5059563;28;20041;-64
2023/05/14 07:18:44;;;;;;;18.05;11.27;;;15.20;99.90;;;;;;5058065;28;20071;-62
2023/05/14 07:21:10;;;;;;;15.93;10.73;;;15.20;99.90;;;;;;5059512;28;20051;-62
2023/05/14 07:23:37;;;;;;;21.48;11.30;;;15.20;99.90;;;;;;5054452;28;20047;-63
2023/05/14 07:26:04;;;;;;;16.33;10.27;;;15.30;99.90;;;;;;5058019;28;20045;-65
2023/05/14 07:28:30;;;;;;;17.83;9.82;;;15.30;99.90;;;;;;5058489;28;20040;-63
2023/05/14 07:30:56;;;;;;;20.80;10.52;;;15.30;99.90;;;;;;5052565;28;20037;-61
2023/05/14 07:33:21;;;;;;;15.93;10.65;;;15.40;99.90;;;;;;5052533;28;20037;-64
2023/05/14 07:35:47;;;;;;;16.38;10.13;;;15.40;99.90;;;;;;5034989;28;20193;-64
2023/05/14 07:38:13;;;;;;;16.88;10.25;;;15.40;99.90;;;;;;5044751;28;20041;-64
2023/05/14 07:40:38;;;;;;;18.38;10.02;;;15.60;99.90;;;;;;5046782;28;20116;-64
2023/05/14 07:43:04;;;;;;;15.32;9.63;;;15.60;99.90;;;;;;5028008;28;20096;-63
2023/05/14 07:45:30;;;;;;;19.10;9.70;;;15.70;99.90;;;;;;5045337;28;20181;-64
2023/05/14 07:47:55;;;;;;;20.70;9.48;;;15.80;99.90;;;;;;5046470;28;20040;-65
2023/05/14 07:50:22;;;;;;;16.05;8.90;;;15.80;99.90;;;;;;5044577;28;20041;-64
2023/05/14 07:52:47;;;;;;;15.80;8.85;;;15.80;99.90;;;;;;5042339;28;20037;-63
2023/05/14 07:55:13;;;;;;;15.27;8.30;;;15.90;99.90;;;;;;5040867;28;20346;-64
2023/05/14 07:57:39;;;;;;;15.52;8.70;;;16.00;99.90;;;;;;5034904;28;20120;-64
2023/05/14 08:00:08;;;;;;;16.48;8.73;;;16.10;99.90;;;;;;5051934;28;20033;-62
2023/05/14 08:02:34;;;;;;;21.45;7.78;;;16.20;99.90;;;;;;5049479;28;20037;-64
2023/05/14 08:05:00;;;;;;;19.13;8.52;;;16.20;99.90;;;;;;5030305;28;20040;-64
2023/05/14 08:07:28;;;;;;;15.38;7.05;;;16.30;99.90;;;;;;5047272;28;20037;-64
2023/05/14 08:09:54;;;;;;;14.93;7.32;;;16.30;99.90;;;;;;5029955;28;20071;-64
2023/05/14 08:12:19;;;;;;;13.30;7.65;;;16.40;99.90;;;;;;5033680;28;20441;-64
2023/05/14 08:14:45;;;;;;;14.60;8.15;;;16.40;99.90;;;;;;5021326;28;20049;-61
2023/05/14 08:17:11;;;;;;;14.15;7.10;;;16.50;99.90;;;;;;5036570;28;20502;-64
2023/05/14 08:19:36;;;;;;;15.45;8.10;;;16.50;99.90;;;;;;5032425;28;20029;-64
2023/05/14 08:22:02;;;;;;;13.27;6.70;;;16.50;99.90;;;;;;5035116;28;20052;-64
2023/05/14 08:24:28;;;;;;;16.80;7.88;;;16.70;99.90;;;;;;5037067;28;20127;-64
2023/05/14 08:26:54;;;;;;;14.45;7.10;;;16.90;99.90;;;;;;5050625;28;20060;-63
2023/05/14 08:29:20;;;;;;;12.25;7.13;;;17.10;99.90;;;;;;5045416;28;20029;-64
2023/05/14 08:31:46;;;;;;;13.10;7.25;;;17.20;99.90;;;;;;5034642;28;20039;-62
2023/05/14 08:34:11;;;;;;;12.80;6.00;;;17.40;99.90;;;;;;5044384;28;20052;-64
2023/05/14 08:36:38;;;;;;;13.90;6.55;;;17.70;99.90;;;;;;5055586;28;20029;-64
2023/05/14 08:39:03;;;;;;;14.05;6.22;;;17.90;99.90;;;;;;5055965;28;20499;-64
2023/05/14 08:41:29;;;;;;;13.85;6.90;;;18.20;99.90;;;;;;5047034;28;20040;-65
2023/05/14 08:43:58;;;;;;;16.08;6.20;;;18.30;99.90;;;;;;5041702;28;20116;-65
2023/05/14 08:46:28;;;;;;;10.50;5.90;;;18.50;99.90;;;;;;5039384;28;20109;-62
2023/05/14 08:48:59;;;;;;;10.45;6.00;;;18.80;99.90;;;;;;5029104;28;20043;-65
2023/05/14 08:51:26;;;;;;;13.38;6.13;;;19.00;99.90;;;;;;5028644;28;20067;-64
2023/05/14 08:53:52;;;;;;;10.18;5.47;;;19.10;99.90;;;;;;5035923;28;21659;-64
2023/05/14 08:56:18;;;;;;;13.25;5.57;;;19.20;99.90;;;;;;5021793;28;20049;-64
2023/05/14 08:58:44;;;;;;;10.82;5.50;;;19.30;99.90;;;;;;5049421;28;20384;-64
2023/05/14 09:01:10;;;;;;;11.93;5.05;;;19.40;99.90;;;;;;5039009;28;20044;-64
2023/05/14 09:03:36;;;;;;;9.90;5.40;;;19.40;99.90;;;;;;5036304;28;20132;-64
2023/05/14 09:06:04;;;;;;;11.85;5.65;;;19.40;99.90;;;;;;5039950;28;20047;-65
2023/05/14 09:08:30;;;;;;;8.43;4.82;;;19.60;99.90;;;;;;5042963;28;20482;-65
2023/05/14 09:10:56;;;;;;;8.23;5.28;;;19.70;99.90;;;;;;5044191;28;20040;-65
2023/05/14 09:13:21;;;;;;;10.05;5.70;;;19.80;99.90;;;;;;5048727;28;20045;-64
2023/05/14 09:15:50;;;;;;;10.07;5.05;;;19.80;99.90;;;;;;5031757;28;20037;-64
2023/05/14 09:18:16;;;;;;;10.95;5.43;;;19.90;99.90;;;;;;5032892;28;20083;-63
2023/05/14 09:20:42;;;;;;;10.65;5.03;;;19.90;99.90;;;;;;5050332;28;20083;-65
2023/05/14 09:23:07;;;;;;;12.88;5.00;;;20.00;99.90;;;;;;5049741;28;20037;-65
2023/05/14 09:25:33;;;;;;;10.27;5.25;;;20.10;99.90;;;;;;5027352;28;20539;-64
2023/05/14 09:27:59;;;;;;;10.38;5.32;;;20.40;99.90;;;;;;5050187;28;20821;-65
2023/05/14 09:30:27;;;;;;;10.88;4.97;;;20.60;99.90;;;;;;5050369;28;20053;-65
2023/05/14 09:35:23;;;;;;;8.95;4.72;;;21.00;99.90;;;;;;5049346;28;20044;-64
2023/05/14 09:37:50;;;;;;;9.55;4.97;;;21.20;99.90;;;;;;5061429;28;20093;-64
2023/05/14 09:40:17;;;;;;;10.20;5.10;;;21.20;99.90;;;;;;5067018;28;20397;-63
2023/05/14 09:42:43;;;;;;;7.80;4.80;;;21.20;99.90;;;;;;5064617;28;20055;-64
2023/05/14 09:45:10;;;;;;;8.52;4.60;;;21.20;99.90;;;;;;5065810;28;20406;-64
2023/05/14 09:47:36;;;;;;;8.50;4.88;;;21.20;99.90;;;;;;5059469;28;20098;-64
2023/05/14 09:50:03;;;;;;;12.27;5.10;;;21.20;99.90;;;;;;5060164;28;20064;-64
2023/05/14 09:52:29;;;;;;;11.50;5.50;;;21.10;99.90;;;;;;5063204;28;20090;-63
2023/05/14 09:54:55;;;;;;;11.10;5.28;;;21.20;99.90;;;;;;5068315;28;20044;-64
2023/05/14 09:57:20;;;;;;;11.23;5.20;;;21.30;99.90;;;;;;5055301;28;20041;-64
2023/05/14 09:59:46;;;;;;;13.15;4.95;;;21.40;99.90;;;;;;5058752;28;20475;-64
2023/05/14 10:02:25;;;;;;;7.85;4.50;;;21.60;99.90;;;;;;5062857;28;20052;-63
2023/05/14 10:04:53;;;;;;;8.60;4.60;;;21.80;99.90;;;;;;5058116;28;20071;-64
2023/05/14 10:07:30;;;;;;;8.93;4.90;;;22.00;99.90;;;;;;5058764;28;20040;-63
2023/05/14 10:10:07;;;;;;;9.50;4.90;;;22.10;99.90;;;;;;5055684;28;20078;-64
2023/05/14 10:12:37;;;;;;;11.88;4.70;;;22.20;99.90;;;;;;5058618;28;20036;-63
2023/05/14 10:15:10;;;;;;;10.02;5.32;;;22.20;99.90;;;;;;5059556;28;20078;-63
2023/05/14 10:17:39;;;;;;;13.00;5.10;;;22.30;99.90;;;;;;5067828;28;20075;-63
2023/05/14 10:20:08;;;;;;;9.60;5.10;;;22.50;99.90;;;;;;5068866;28;20098;-64
2023/05/14 10:22:34;;;;;;;7.82;4.18;;;22.60;99.90;;;;;;5066563;28;20040;-63
2023/05/14 10:25:01;;;;;;;8.77;5.18;;;22.80;99.90;;;;;;5059075;28;20044;-63
2023/05/14 10:27:28;;;;;;;12.18;5.28;;;23.00;99.20;;;;;;5059875;28;20040;-63
2023/05/14 10:29:54;;;;;;;8.80;5.28;;;23.10;99.00;;;;;;5062155;28;20060;-63
2023/05/14 10:32:25;;;;;;;8.07;4.70;;;23.30;98.90;;;;;;5064489;28;20502;-63
2023/05/14 10:34:52;;;;;;;9.77;4.90;;;23.40;97.90;;;;;;5065249;28;20561;-63
2023/05/14 10:37:27;;;;;;;7.45;4.85;;;23.40;97.30;;;;;;5061782;28;20159;-63
2023/05/14 10:40:04;;;;;;;9.00;5.00;;;23.40;97.20;;;;;;5068179;28;20402;-64
2023/05/14 10:42:39;;;;;;;9.27;4.82;;;23.50;97.20;;;;;;5069527;28;20049;-64
2023/05/14 10:45:07;;;;;;;9.02;4.60;;;23.40;97.00;;;;;;5065677;28;20037;-64
2023/05/14 10:47:35;;;;;;;9.85;4.60;;;23.40;97.00;;;;;;5069144;28;20052;-63
2023/05/14 10:50:06;;;;;;;6.72;4.28;;;23.40;97.10;;;;;;5058527;28;20387;-64
2023/05/14 10:52:33;;;;;;;11.77;4.35;;;23.50;96.90;;;;;;5061353;28;20048;-63
2023/05/14 10:55:01;;;;;;;10.25;5.53;;;23.50;96.40;;;;;;5068499;28;20502;-63
2023/05/14 10:57:29;;;;;;;8.07;4.70;;;23.70;96.90;;;;;;5059943;28;20047;-64
2023/05/14 10:59:56;;;;;;;14.93;5.22;;;23.80;96.80;;;;;;5063733;28;20097;-64
2023/05/14 11:02:27;;;;;;;9.40;4.63;;;23.80;96.90;;;;;;5063313;28;20499;-63
2023/05/14 11:05:12;;;;;;;9.85;4.75;;;23.80;96.80;;;;;;5071823;28;20414;-63
2023/05/14 11:07:40;;;;;;;10.60;5.47;;;23.80;96.80;;;;;;5061949;28;20056;-64
2023/05/14 11:10:15;;;;;;;11.05;4.80;;;23.80;97.00;;;;;;5058763;28;20044;-63
2023/05/14 11:12:46;;;;;;;9.35;5.43;;;23.70;97.00;;;;;;5061701;28;20055;-63
2023/05/14 11:15:17;;;;;;;9.77;5.90;;;23.60;97.60;;;;;;5063260;28;20139;-63
2023/05/14 11:17:44;;;;;;;8.75;5.30;;;23.50;97.90;;;;;;5073764;28;20032;-63
2023/05/14 11:20:10;;;;;;;10.23;5.15;;;23.50;98.10;;;;;;5059467;28;20033;-63
2023/05/14 11:22:38;;;;;;;12.52;6.00;;;23.50;98.10;;;;;;5061155;28;20393;-63
2023/05/14 11:25:05;;;;;;;11.60;5.80;;;23.50;98.30;;;;;;5066673;28;20086;-63
2023/05/14 11:27:33;;;;;;;10.73;5.50;;;23.50;98.60;;;;;;5071677;28;20446;-64
2023/05/14 11:29:59;;;;;;;12.40;5.60;;;23.70;98.70;;;;;;5072038;28;20041;-63
2023/05/14 11:32:25;;;;;;;11.20;4.88;;;24.00;98.60;;;;;;5071033;28;20040;-64
2023/05/14 11:34:51;;;;;;;8.50;5.72;;;24.20;98.50;;;;;;5068402;28;20414;-63
2023/05/14 11:37:17;;;;;;;11.98;5.13;;;24.30;97.60;;;;;;5063625;28;20043;-63
2023/05/14 11:39:50;;;;;;;7.38;4.40;;;24.30;97.40;;;;;;5070638;28;20039;-63
2023/05/14 11:42:18;;;;;;;7.55;3.90;;;24.40;96.40;;;;;;5070759;28;20052;-63
2023/05/14 11:44:47;;;;;;;8.13;4.07;;;24.40;96.20;;;;;;5057681;28;20398;-63
2023/05/14 11:47:14;;;;;;;9.73;3.95;;;24.40;95.50;;;;;;5062759;28;20033;-63
2023/05/14 11:49:40;;;;;;;7.35;3.83;;;24.50;95.10;;;;;;5062718;28;20047;-63
2023/05/14 11:52:09;;;;;;;7.85;3.70;;;24.40;94.10;;;;;;5067126;28;20359;-63
2023/05/14 11:54:34;;;;;;;5.88;3.55;;;24.30;93.90;;;;;;5060202;28;20564;-63
2023/05/14 11:57:06;;;;;;;9.43;3.92;;;24.40;93.80;;;;;;5062557;28;20070;-63
2023/05/14 11:59:32;;;;;;;7.25;4.18;;;24.60;93.90;;;;;;5067144;28;20508;-63
2023/05/14 12:01:58;;;;;;;7.97;4.15;;;24.70;93.90;;;;;;5058631;28;20025;-63
2023/05/14 12:04:24;;;;;;;9.40;4.50;;;24.80;93.70;;;;;;5061293;28;20032;-63
2023/05/14 12:06:51;;;;;;;7.88;4.40;;;24.80;93.80;;;;;;5063508;28;20047;-63
2023/05/14 12:09:18;;;;;;;8.38;4.50;;;24.90;93.40;;;;;;5069719;28;20036;-63
2023/05/14 12:11:48;;;;;;;6.90;4.50;;;24.90;93.40;;;;;;5063019;28;20111;-63
2023/05/14 12:14:19;;;;;;;7.20;4.38;;;24.90;93.40;;;;;;5070502;28;20049;-63
2023/05/14 12:16:45;;;;;;;6.80;4.83;;;24.90;93.40;;;;;;5069838;28;20402;-64
2023/05/14 12:19:14;;;;;;;7.30;4.53;;;24.80;93.30;;;;;;5065679;28;20059;-63
2023/05/14 12:21:41;;;;;;;7.63;3.90;;;24.70;93.30;;;;;;5060436;28;20037;-63
2023/05/14 12:24:16;;;;;;;9.27;3.90;;;24.80;93.50;;;;;;5064221;28;20364;-63
2023/05/14 12:26:46;;;;;;;9.15;3.90;;;25.00;93.10;;;;;;5055368;28;20044;-63
2023/05/14 12:29:14;;;;;;;10.68;4.18;;;25.10;92.90;;;;;;5059306;28;20044;-63
2023/05/14 12:31:47;;;;;;;5.72;3.53;;;25.20;92.80;;;;;;5068089;28;20032;-63
2023/05/14 12:34:13;;;;;;;6.18;3.50;;;25.40;91.70;;;;;;5070431;28;20064;-63